Terminal Aerodrome Forecast
Issued by NWS

Home | Current Version | Previous Version | Text Only | Print | Product List | Glossary On
Versions: 1 2 3 4 5 6 7 8 9 10 11 12 13 14
000
FTUS46 KSEW 232320
TAFHQM
TAF
KHQM 232320Z 2400/2424 18013KT 6SM -SHRA BR BKN015 OVC030
     FM240900 06004KT 6SM BR VCSH BKN015 OVC030
     FM241800 25007KT P6SM VCSH SCT025 BKN050=

USA.gov is the U.S. government's official web portal to all federal, state and local government web resources and services.